createdAt,value
2023-04-13T00:00:39.981Z,3.55
2023-04-13T00:03:08.955Z,3.22
2023-04-13T00:05:37.842Z,3.20
2023-04-13T00:08:06.088Z,3.80
2023-04-13T00:10:36.641Z,3.63
2023-04-13T00:13:05.027Z,4.05
2023-04-13T00:15:34.717Z,3.70
2023-04-13T00:18:02.643Z,3.38
2023-04-13T00:20:30.521Z,4.07
2023-04-13T00:22:58.093Z,4.22
2023-04-13T00:25:25.686Z,4.45
2023-04-13T00:27:54.679Z,3.85
2023-04-13T00:30:23.034Z,3.75
2023-04-13T00:32:50.696Z,3.72
2023-04-13T00:35:19.913Z,4.35
2023-04-13T00:37:48.140Z,4.40
2023-04-13T00:40:17.955Z,3.88
2023-04-13T00:42:46.174Z,4.25
2023-04-13T00:45:16.221Z,4.25
2023-04-13T00:47:46.723Z,4.03
2023-04-13T00:50:17.463Z,4.20
2023-04-13T00:52:46.151Z,3.90
2023-04-13T00:55:14.503Z,4.20
2023-04-13T00:57:42.452Z,4.43
2023-04-13T01:00:11.006Z,4.40
2023-04-13T01:02:42.317Z,4.40
2023-04-13T01:05:15.222Z,4.22
2023-04-13T01:07:52.032Z,4.32
2023-04-13T01:10:25.692Z,4.60
2023-04-13T01:13:09.528Z,5.00
2023-04-13T01:15:47.641Z,5.15
2023-04-13T01:18:19.364Z,5.13
2023-04-13T01:20:48.290Z,4.85
2023-04-13T01:23:28.388Z,4.68
2023-04-13T01:26:00.615Z,4.90
2023-04-13T01:28:30.433Z,5.45
2023-04-13T01:31:00.389Z,6.10
2023-04-13T01:33:30.633Z,6.47
2023-04-13T01:36:00.624Z,6.15
2023-04-13T01:38:29.892Z,5.93
2023-04-13T01:40:59.091Z,6.20
2023-04-13T01:43:30.560Z,5.95
2023-04-13T01:46:06.698Z,5.97
2023-04-13T01:48:45.919Z,6.75
2023-04-13T01:51:25.821Z,6.70
2023-04-13T01:54:02.476Z,6.78
2023-04-13T01:56:30.742Z,7.35
2023-04-13T01:59:05.304Z,7.68
2023-04-13T02:01:32.970Z,6.95
2023-04-13T02:04:01.770Z,6.30
2023-04-13T02:06:31.917Z,5.50
2023-04-13T02:09:01.236Z,7.18
2023-04-13T02:11:29.185Z,7.10
2023-04-13T02:13:58.114Z,6.80
2023-04-13T02:16:28.360Z,6.78
2023-04-13T02:18:58.222Z,7.25
2023-04-13T02:21:26.720Z,6.97
2023-04-13T02:23:54.341Z,7.35
2023-04-13T02:26:26.072Z,7.13
2023-04-13T02:28:53.698Z,8.63
2023-04-13T02:31:23.310Z,7.60
2023-04-13T02:33:52.602Z,7.47
2023-04-13T02:36:20.277Z,9.95
2023-04-13T02:38:55.488Z,8.82
2023-04-13T02:41:27.092Z,8.82
2023-04-13T02:43:54.851Z,8.90
2023-04-13T02:46:25.174Z,10.48
2023-04-13T02:49:00.163Z,9.88
2023-04-13T02:51:32.224Z,8.75
2023-04-13T02:53:59.955Z,9.80
2023-04-13T02:56:28.407Z,9.15
2023-04-13T02:58:59.703Z,8.40
2023-04-13T03:01:29.438Z,8.43
2023-04-13T03:03:57.422Z,8.63
2023-04-13T03:06:29.170Z,8.52
2023-04-13T03:09:00.918Z,9.60
2023-04-13T03:11:34.995Z,9.50
2023-04-13T03:14:13.053Z,8.43
2023-04-13T03:16:41.692Z,8.95
2023-04-13T03:19:10.370Z,8.25
2023-04-13T03:21:42.772Z,8.00
2023-04-13T03:24:14.542Z,8.27
2023-04-13T03:26:42.327Z,8.40
2023-04-13T03:29:14.901Z,8.25
2023-04-13T03:31:45.853Z,8.50
2023-04-13T03:34:13.752Z,8.20
2023-04-13T03:36:45.014Z,8.02
2023-04-13T03:39:12.887Z,8.77
2023-04-13T03:41:40.581Z,9.13
2023-04-13T03:44:10.007Z,9.00
2023-04-13T03:46:38.966Z,8.55
2023-04-13T03:49:18.107Z,8.18
2023-04-13T03:51:47.085Z,7.93
2023-04-13T03:54:15.389Z,7.88
2023-04-13T03:56:43.146Z,8.20
2023-04-13T03:59:10.971Z,8.10
2023-04-13T04:01:38.648Z,8.18
2023-04-13T04:04:06.713Z,9.07
2023-04-13T04:06:34.487Z,7.90
2023-04-13T04:09:13.493Z,8.40
2023-04-13T04:11:45.504Z,8.68
2023-04-13T04:14:14.776Z,9.27
2023-04-13T04:16:51.006Z,8.82
2023-04-13T04:19:19.749Z,9.68
2023-04-13T04:21:49.845Z,9.50
2023-04-13T04:24:22.529Z,9.00
2023-04-13T04:26:55.085Z,8.85
2023-04-13T04:29:29.801Z,13.23
2023-04-13T04:31:58.999Z,9.55
2023-04-13T04:34:26.731Z,9.38
2023-04-13T04:36:57.011Z,9.13
2023-04-13T04:39:32.725Z,9.45
2023-04-13T04:42:10.854Z,8.85
2023-04-13T04:44:39.993Z,9.70
2023-04-13T04:47:10.218Z,10.13
2023-04-13T04:49:57.806Z,9.60
2023-04-13T04:52:26.222Z,9.68
2023-04-13T04:54:56.171Z,8.82
2023-04-13T04:57:24.581Z,8.93
2023-04-13T04:59:52.185Z,9.40
2023-04-13T05:02:20.202Z,9.00
2023-04-13T05:04:48.138Z,9.40
2023-04-13T05:07:17.774Z,10.27
2023-04-13T05:09:45.495Z,9.77
2023-04-13T05:12:14.601Z,9.10
2023-04-13T05:14:48.160Z,8.73
2023-04-13T05:17:18.119Z,9.70
2023-04-13T05:19:46.021Z,7.78
2023-04-13T05:22:24.250Z,8.65
2023-04-13T05:24:58.161Z,9.32
2023-04-13T05:27:27.653Z,8.50
2023-04-13T05:29:57.601Z,8.85
2023-04-13T05:32:26.497Z,8.68
2023-04-13T05:34:57.081Z,9.02
2023-04-13T05:37:27.329Z,9.13
2023-04-13T05:39:55.583Z,8.27
2023-04-13T05:42:31.147Z,7.80
2023-04-13T05:44:59.697Z,7.47
2023-04-13T05:47:30.072Z,8.00
2023-04-13T05:50:04.061Z,6.60
2023-04-13T05:52:32.206Z,6.63
2023-04-13T05:54:59.936Z,6.72
2023-04-13T05:57:28.166Z,6.55
2023-04-13T05:59:58.000Z,5.95
2023-04-13T06:02:32.134Z,5.20
2023-04-13T06:05:01.938Z,5.68
2023-04-13T06:07:29.851Z,5.63
2023-04-13T06:09:57.515Z,5.22
2023-04-13T06:12:25.821Z,4.68
2023-04-13T06:14:53.823Z,4.30
2023-04-13T06:17:23.015Z,4.70
2023-04-13T06:19:51.887Z,4.55
2023-04-13T06:22:19.597Z,5.00
2023-04-13T06:24:47.541Z,4.53
2023-04-13T06:27:15.567Z,5.20
2023-04-13T06:29:46.730Z,4.90
2023-04-13T06:32:14.534Z,5.25
2023-04-13T06:34:45.770Z,5.05
2023-04-13T06:37:14.257Z,4.72
2023-04-13T06:39:47.356Z,5.03
2023-04-13T06:42:16.332Z,5.45
2023-04-13T06:45:09.079Z,11.13
2023-04-13T06:47:41.867Z,5.70
2023-04-13T06:50:15.718Z,5.45
2023-04-13T06:52:44.991Z,5.65
2023-04-13T06:55:13.163Z,5.30
2023-04-13T06:57:42.709Z,4.85
2023-04-13T07:00:28.151Z,5.57
2023-04-13T07:02:58.692Z,4.47
2023-04-13T07:05:28.236Z,4.25
2023-04-13T07:08:01.783Z,4.50
2023-04-13T07:10:30.430Z,4.20
2023-04-13T07:13:03.009Z,3.72
2023-04-13T07:15:32.585Z,3.50
2023-04-13T07:18:00.630Z,4.30
2023-04-13T07:20:29.886Z,3.95
2023-04-13T07:22:57.789Z,3.75
2023-04-13T07:25:25.733Z,3.20
2023-04-13T07:27:53.630Z,3.28
2023-04-13T07:30:23.081Z,2.72
2023-04-13T07:32:52.141Z,2.85
2023-04-13T07:35:21.508Z,2.90
2023-04-13T07:37:53.801Z,2.88
2023-04-13T07:40:22.877Z,2.53
2023-04-13T07:42:53.985Z,2.47
2023-04-13T07:45:22.313Z,2.65
2023-04-13T07:47:50.604Z,2.72
2023-04-13T07:50:18.808Z,2.25
2023-04-13T07:52:47.874Z,1.95
2023-04-13T07:55:18.945Z,2.35
2023-04-13T07:57:50.822Z,1.80
2023-04-13T08:00:21.098Z,2.50
2023-04-13T08:02:52.543Z,2.55
2023-04-13T08:05:23.968Z,2.10
2023-04-13T08:07:52.949Z,1.80
2023-04-13T08:10:22.374Z,2.15
2023-04-13T08:12:50.142Z,3.10
2023-04-13T08:15:20.805Z,6.07
2023-04-13T08:17:48.935Z,3.55
2023-04-13T08:20:18.536Z,3.92
2023-04-13T08:22:46.871Z,2.22
2023-04-13T08:25:15.505Z,4.75
2023-04-13T08:27:44.909Z,2.70
2023-04-13T08:30:14.783Z,2.85
2023-04-13T08:32:53.729Z,1.70
2023-04-13T08:35:22.228Z,3.15
2023-04-13T08:37:49.901Z,5.57
2023-04-13T08:40:19.966Z,2.20
2023-04-13T08:42:49.700Z,2.35
2023-04-13T08:45:19.328Z,3.00
2023-04-13T08:47:49.592Z,3.30
2023-04-13T08:50:19.728Z,1.60
2023-04-13T08:52:51.291Z,2.20
2023-04-13T08:55:19.059Z,1.95
2023-04-13T08:57:51.883Z,1.75
2023-04-13T09:00:21.857Z,2.10
2023-04-13T09:03:04.569Z,1.90
2023-04-13T09:05:36.683Z,3.28
2023-04-13T09:08:07.892Z,2.45
2023-04-13T09:10:37.937Z,1.63
2023-04-13T09:13:07.613Z,2.70
2023-04-13T09:15:35.517Z,1.52
2023-04-13T09:18:17.186Z,1.95
2023-04-13T09:20:57.899Z,1.70
2023-04-13T09:23:26.204Z,2.00
2023-04-13T09:26:06.150Z,3.53
2023-04-13T09:28:38.279Z,3.53
2023-04-13T09:31:06.487Z,1.90
2023-04-13T09:33:44.587Z,1.42
2023-04-13T09:36:13.122Z,1.40
2023-04-13T09:38:41.028Z,1.70
2023-04-13T09:41:08.963Z,1.33
2023-04-13T09:43:38.816Z,1.45
2023-04-13T09:46:13.233Z,1.50
2023-04-13T09:48:41.668Z,1.20
2023-04-13T09:51:10.766Z,1.73
2023-04-13T09:53:43.495Z,1.73
2023-04-13T09:56:11.302Z,1.70
2023-04-13T09:58:43.711Z,1.45
2023-04-13T10:01:11.696Z,1.35
2023-04-13T10:03:40.000Z,1.23
2023-04-13T10:06:08.949Z,1.50
2023-04-13T10:08:39.218Z,1.67
2023-04-13T10:11:11.814Z,1.80
2023-04-13T10:13:50.594Z,2.08
2023-04-13T10:16:41.629Z,1.90
2023-04-13T10:19:12.405Z,1.83
2023-04-13T10:21:41.817Z,2.22
2023-04-13T10:24:12.670Z,2.10
2023-04-13T10:26:42.212Z,1.77
2023-04-13T10:29:14.000Z,1.90
2023-04-13T10:31:46.922Z,2.03
2023-04-13T10:34:25.618Z,2.00
2023-04-13T10:36:55.293Z,2.13
2023-04-13T10:39:27.476Z,2.35
2023-04-13T10:42:02.384Z,2.20
2023-04-13T10:44:41.974Z,2.83
2023-04-13T10:47:11.248Z,2.03
2023-04-13T10:49:39.443Z,2.25
2023-04-13T10:52:07.338Z,2.22
2023-04-13T10:54:36.383Z,1.98
2023-04-13T10:57:06.580Z,2.10
2023-04-13T10:59:53.517Z,1.92
2023-04-13T11:02:26.954Z,1.40
2023-04-13T11:04:55.144Z,1.73
2023-04-13T11:07:26.014Z,1.90
2023-04-13T11:10:02.968Z,1.60
2023-04-13T11:12:31.392Z,1.58
2023-04-13T11:15:00.921Z,1.58
2023-04-13T11:17:28.769Z,1.30
2023-04-13T11:19:58.128Z,1.20
2023-04-13T11:22:27.910Z,1.55
2023-04-13T11:25:07.283Z,1.70
2023-04-13T11:27:34.914Z,1.52
2023-04-13T11:30:06.887Z,1.95
2023-04-13T11:32:35.155Z,1.38
2023-04-13T11:35:08.083Z,1.40
2023-04-13T11:37:39.447Z,1.38
2023-04-13T11:40:14.569Z,1.50
2023-04-13T11:42:44.289Z,1.35
2023-04-13T11:45:15.783Z,1.50
2023-04-13T11:47:43.859Z,1.40
2023-04-13T11:50:15.655Z,1.67
2023-04-13T11:52:44.909Z,1.50
2023-04-13T11:55:22.365Z,1.15
2023-04-13T11:57:51.094Z,1.35
2023-04-13T12:00:24.578Z,1.35
2023-04-13T12:03:01.767Z,1.65
2023-04-13T12:05:33.157Z,1.48
2023-04-13T12:08:13.424Z,1.50
2023-04-13T12:10:51.855Z,1.50
2023-04-13T12:16:08.530Z,1.40
2023-04-13T12:18:44.159Z,1.50
2023-04-13T12:21:17.316Z,1.58
2023-04-13T12:23:53.776Z,1.50
2023-04-13T12:28:56.536Z,1.40
2023-04-13T12:31:25.941Z,1.30
2023-04-13T12:33:53.607Z,1.40
2023-04-13T12:36:21.776Z,1.40
2023-04-13T12:38:49.509Z,1.55
2023-04-13T12:41:17.224Z,1.77
2023-04-13T12:43:44.884Z,1.42
2023-04-13T12:46:12.588Z,1.70
2023-04-13T12:48:41.783Z,1.98
2023-04-13T12:51:09.615Z,1.38
2023-04-13T12:53:37.424Z,1.40
2023-04-13T12:56:05.461Z,1.58
2023-04-13T12:58:33.617Z,1.80
2023-04-13T13:01:01.369Z,1.90
2023-04-13T13:03:29.263Z,1.90
2023-04-13T13:06:00.118Z,1.67
2023-04-13T13:08:27.845Z,1.95
2023-04-13T13:10:55.712Z,1.80
2023-04-13T13:13:23.388Z,1.80
2023-04-13T13:15:51.123Z,1.70
2023-04-13T13:18:18.839Z,1.77
2023-04-13T13:20:49.178Z,2.40
2023-04-13T13:23:19.527Z,2.00
2023-04-13T13:25:57.428Z,2.00
2023-04-13T13:28:34.963Z,2.00
2023-04-13T13:31:02.752Z,2.15
2023-04-13T13:33:30.480Z,1.85
2023-04-13T13:35:58.259Z,1.80
2023-04-13T13:38:28.048Z,2.05
2023-04-13T13:40:56.030Z,1.60
2023-04-13T13:43:23.919Z,1.73
2023-04-13T13:45:51.979Z,1.70
2023-04-13T13:48:21.654Z,1.60
2023-04-13T13:50:57.622Z,1.95
2023-04-13T13:53:28.749Z,1.83
2023-04-13T13:55:57.153Z,1.75
2023-04-13T13:58:24.910Z,1.70
2023-04-13T14:00:52.753Z,2.20
2023-04-13T14:03:20.894Z,1.80
2023-04-13T14:05:49.011Z,2.00
2023-04-13T14:08:16.791Z,2.10
2023-04-13T14:10:48.622Z,1.98
2023-04-13T14:13:16.953Z,2.13
2023-04-13T14:15:44.816Z,2.15
2023-04-13T14:18:12.492Z,1.33
2023-04-13T14:20:40.713Z,1.55
2023-04-13T14:23:09.564Z,1.08
2023-04-13T14:25:38.776Z,0.90
2023-04-13T14:28:08.983Z,1.00
2023-04-13T14:30:36.820Z,0.80
2023-04-13T14:33:05.576Z,0.82
2023-04-13T14:35:33.353Z,0.70
2023-04-13T14:38:01.876Z,0.52
2023-04-13T14:40:29.774Z,0.63
2023-04-13T14:42:57.517Z,0.40
2023-04-13T14:45:26.746Z,0.50
2023-04-13T14:47:54.702Z,0.60
2023-04-13T14:50:22.909Z,0.60
2023-04-13T14:52:51.106Z,0.80
2023-04-13T14:55:19.265Z,1.55
2023-04-13T14:57:47.093Z,1.35
2023-04-13T15:00:21.690Z,1.50
2023-04-13T15:02:52.471Z,1.48
2023-04-13T15:05:20.935Z,1.40
2023-04-13T15:07:50.682Z,1.63
2023-04-13T15:10:18.970Z,1.35
2023-04-13T15:12:48.120Z,1.73
2023-04-13T15:15:15.922Z,1.35
2023-04-13T15:17:43.896Z,1.50
2023-04-13T15:20:13.423Z,1.67
2023-04-13T15:22:41.257Z,1.20
2023-04-13T15:25:09.595Z,1.23
2023-04-13T15:27:37.397Z,1.40
2023-04-13T15:30:05.966Z,1.70
2023-04-13T15:32:35.135Z,1.60
2023-04-13T15:35:03.373Z,1.73
2023-04-13T15:37:32.731Z,1.67
2023-04-13T15:40:01.390Z,2.10
2023-04-13T15:42:29.479Z,1.13
2023-04-13T15:44:57.105Z,1.48
2023-04-13T15:47:24.876Z,1.48
2023-04-13T15:49:52.650Z,1.33
2023-04-13T15:52:20.462Z,1.15
2023-04-13T15:54:49.584Z,0.90
2023-04-13T15:57:17.755Z,0.85
2023-04-13T15:59:45.669Z,0.98
2023-04-13T16:02:14.560Z,1.00
2023-04-13T16:04:42.539Z,1.08
2023-04-13T16:07:14.156Z,1.30
2023-04-13T16:09:44.977Z,1.40
2023-04-13T16:12:14.336Z,1.35
2023-04-13T16:14:44.710Z,1.35
2023-04-13T16:17:13.170Z,1.15
2023-04-13T16:19:40.845Z,1.10
2023-04-13T16:22:10.775Z,0.90
2023-04-13T16:24:38.558Z,1.15
2023-04-13T16:27:07.317Z,1.35
2023-04-13T16:29:36.628Z,1.50
2023-04-13T16:32:04.310Z,2.10
2023-04-13T16:34:31.985Z,0.60
2023-04-13T16:36:59.566Z,0.50
2023-04-13T16:39:27.446Z,0.40
2023-04-13T16:41:55.075Z,0.82
2023-04-13T16:44:22.781Z,0.60
2023-04-13T16:46:51.912Z,0.50
2023-04-13T16:49:19.640Z,1.10
2023-04-13T16:51:48.363Z,1.42
2023-04-13T16:54:17.811Z,1.02
2023-04-13T16:56:45.560Z,0.88
2023-04-13T16:59:13.355Z,0.80
2023-04-13T17:01:41.045Z,0.93
2023-04-13T17:04:10.367Z,1.15
2023-04-13T17:06:39.116Z,1.30
2023-04-13T17:09:07.206Z,1.33
2023-04-13T17:11:35.465Z,1.55
2023-04-13T17:14:03.170Z,1.65
2023-04-13T17:16:30.816Z,1.15
2023-04-13T17:18:59.079Z,1.40
2023-04-13T17:21:28.787Z,1.60
2023-04-13T17:23:56.399Z,1.60
2023-04-13T17:26:24.019Z,1.90
2023-04-13T17:28:52.307Z,1.67
2023-04-13T17:31:20.053Z,2.13
2023-04-13T17:33:50.321Z,2.05
2023-04-13T17:36:18.852Z,2.78
2023-04-13T17:38:47.923Z,2.70
2023-04-13T17:41:15.613Z,2.97
2023-04-13T17:43:43.195Z,3.20
2023-04-13T17:46:12.293Z,3.15
2023-04-13T17:48:40.529Z,2.60
2023-04-13T17:51:11.368Z,2.88
2023-04-13T17:53:39.377Z,2.92
2023-04-13T17:56:09.193Z,3.60
2023-04-13T17:58:36.843Z,3.10
2023-04-13T18:01:08.506Z,3.30
2023-04-13T18:03:36.455Z,3.40
2023-04-13T18:06:05.395Z,3.28
2023-04-13T18:08:33.081Z,5.50
2023-04-13T18:11:00.823Z,5.07
2023-04-13T18:13:31.516Z,4.50
2023-04-13T18:15:59.347Z,3.83
2023-04-13T18:18:27.227Z,4.18
2023-04-13T18:20:54.938Z,4.00
2023-04-13T18:23:23.005Z,3.83
2023-04-13T18:25:51.392Z,4.28
2023-04-13T18:28:19.092Z,4.18
2023-04-13T18:30:48.886Z,4.40
2023-04-13T18:33:16.694Z,4.45
2023-04-13T18:35:45.772Z,4.72
2023-04-13T18:38:13.514Z,4.32
2023-04-13T18:40:41.648Z,4.30
2023-04-13T18:43:09.435Z,4.68
2023-04-13T18:45:37.223Z,4.38
2023-04-13T18:48:07.408Z,3.90
2023-04-13T18:50:35.328Z,4.38
2023-04-13T18:53:03.029Z,5.28
2023-04-13T18:55:31.400Z,4.75
2023-04-13T18:57:59.249Z,3.83
2023-04-13T19:00:27.006Z,3.67
2023-04-13T19:02:57.166Z,4.30
2023-04-13T19:05:27.756Z,3.45
2023-04-13T19:07:58.632Z,3.85
2023-04-13T19:10:27.930Z,3.30
2023-04-13T19:12:56.552Z,2.72
2023-04-13T19:15:24.654Z,2.45
2023-04-13T19:17:53.144Z,2.70
2023-04-13T19:20:23.119Z,2.42
2023-04-13T19:22:52.558Z,2.70
2023-04-13T19:25:20.504Z,1.95
2023-04-13T19:27:50.202Z,1.67
2023-04-13T19:30:19.577Z,1.60
2023-04-13T19:32:49.665Z,1.80
2023-04-13T19:35:18.172Z,1.48
2023-04-13T19:37:46.078Z,1.80
2023-04-13T19:40:15.324Z,1.50
2023-04-13T19:42:44.485Z,1.90
2023-04-13T19:45:13.760Z,1.95
2023-04-13T19:47:42.270Z,2.40
2023-04-13T19:50:12.149Z,1.90
2023-04-13T19:52:41.431Z,2.67
2023-04-13T19:55:10.837Z,1.92
2023-04-13T19:57:42.776Z,2.03
2023-04-13T20:00:18.939Z,2.10
2023-04-13T20:02:47.998Z,2.25
2023-04-13T20:05:16.872Z,2.15
2023-04-13T20:07:44.652Z,1.90
2023-04-13T20:10:13.409Z,1.85
2023-04-13T20:12:42.385Z,2.08
2023-04-13T20:15:10.671Z,2.03
2023-04-13T20:17:38.371Z,2.55
2023-04-13T20:20:08.209Z,2.10
2023-04-13T20:22:36.079Z,2.47
2023-04-13T20:25:03.722Z,2.53
2023-04-13T20:27:31.294Z,2.58
2023-04-13T20:30:00.355Z,2.17
2023-04-13T20:32:27.997Z,2.28
2023-04-13T20:34:56.070Z,2.80
2023-04-13T20:37:23.745Z,3.40
2023-04-13T20:39:52.810Z,3.40
2023-04-13T20:42:21.813Z,3.40
2023-04-13T20:44:57.064Z,3.60
2023-04-13T20:47:27.213Z,3.90
2023-04-13T20:49:57.441Z,4.15
2023-04-13T20:52:25.872Z,4.55
2023-04-13T20:54:54.494Z,4.20
2023-04-13T20:57:22.348Z,5.32
2023-04-13T20:59:51.742Z,4.53
2023-04-13T21:02:19.469Z,4.88
2023-04-13T21:04:48.507Z,4.82
2023-04-13T21:07:16.425Z,5.15
2023-04-13T21:09:44.418Z,5.07
2023-04-13T21:12:12.216Z,4.93
2023-04-13T21:14:39.992Z,5.40
2023-04-13T21:17:07.635Z,5.50
2023-04-13T21:19:37.652Z,5.20
2023-04-13T21:22:07.044Z,4.75
2023-04-13T21:24:34.853Z,4.68
2023-04-13T21:27:02.831Z,4.82
2023-04-13T21:29:30.448Z,4.43
2023-04-13T21:31:58.152Z,4.93
2023-04-13T21:34:27.204Z,5.30
2023-04-13T21:36:55.049Z,5.05
2023-04-13T21:39:24.154Z,5.07
2023-04-13T21:41:51.794Z,4.63
2023-04-13T21:44:29.327Z,4.90
2023-04-13T21:46:58.390Z,4.72
2023-04-13T21:49:26.397Z,4.70
2023-04-13T21:51:54.003Z,5.10
2023-04-13T21:54:21.676Z,4.75
2023-04-13T21:56:50.919Z,4.80
2023-04-13T21:59:18.757Z,4.90
2023-04-13T22:01:49.625Z,5.15
2023-04-13T22:04:17.403Z,5.10
2023-04-13T22:06:45.004Z,4.38
2023-04-13T22:09:13.459Z,6.85
2023-04-13T22:11:41.341Z,4.93
2023-04-13T22:14:10.330Z,5.40
2023-04-13T22:16:37.954Z,5.53
2023-04-13T22:19:05.580Z,5.97
2023-04-13T22:21:35.862Z,6.40
2023-04-13T22:24:03.604Z,6.03
2023-04-13T22:26:31.268Z,6.65
2023-04-13T22:28:59.340Z,6.47
2023-04-13T22:31:28.612Z,5.78
2023-04-13T22:33:56.438Z,6.38
2023-04-13T22:36:24.100Z,5.90
2023-04-13T22:38:52.013Z,5.22
2023-04-13T22:41:19.844Z,4.85
2023-04-13T22:43:47.518Z,5.82
2023-04-13T22:46:15.182Z,5.22
2023-04-13T22:48:44.151Z,5.75
2023-04-13T22:51:12.131Z,5.85
2023-04-13T22:53:39.678Z,6.10
2023-04-13T22:56:07.724Z,5.85
2023-04-13T22:58:35.328Z,5.28
2023-04-13T23:01:03.175Z,5.80
2023-04-13T23:03:31.008Z,5.80
2023-04-13T23:06:00.381Z,6.00
2023-04-13T23:08:29.227Z,5.80
2023-04-13T23:10:56.874Z,5.57
2023-04-13T23:13:24.476Z,5.75
2023-04-13T23:16:00.067Z,5.68
2023-04-13T23:18:28.140Z,6.10
2023-04-13T23:20:55.908Z,6.03
2023-04-13T23:23:24.884Z,5.93
2023-04-13T23:25:52.935Z,5.82
2023-04-13T23:28:20.537Z,5.68
2023-04-13T23:30:48.220Z,5.93
2023-04-13T23:33:15.929Z,6.00
2023-04-13T23:35:43.653Z,5.40
2023-04-13T23:38:11.240Z,5.95
2023-04-13T23:40:40.256Z,6.20
2023-04-13T23:43:07.972Z,6.25
2023-04-13T23:45:35.663Z,6.30
2023-04-13T23:48:03.893Z,5.65
2023-04-13T23:50:31.637Z,6.28
2023-04-13T23:52:59.656Z,7.40
2023-04-13T23:55:28.534Z,6.78
2023-04-13T23:57:57.729Z,6.60
